createdAt,value
2019-04-06T00:01:33.234Z,93.60
2019-04-06T00:04:02.103Z,93.70
2019-04-06T00:06:31.067Z,93.60
2019-04-06T00:08:59.960Z,93.80
2019-04-06T00:11:28.826Z,93.80
2019-04-06T00:13:57.712Z,93.80
2019-04-06T00:16:26.578Z,93.90
2019-04-06T00:18:55.397Z,93.90
2019-04-06T00:21:24.507Z,94.00
2019-04-06T00:23:53.415Z,94.00
2019-04-06T00:26:22.241Z,94.00
2019-04-06T00:28:51.181Z,94.10
2019-04-06T00:31:42.102Z,94.00
2019-04-06T00:34:11.022Z,94.10
2019-04-06T00:36:39.945Z,94.10
2019-04-06T00:39:08.917Z,94.10
2019-04-06T00:41:37.835Z,94.20
2019-04-06T00:44:06.779Z,94.20
2019-04-06T00:46:35.845Z,94.30
2019-04-06T00:49:04.782Z,94.30
2019-04-06T00:51:33.608Z,94.10
2019-04-06T00:54:02.448Z,93.50
2019-04-06T00:56:31.415Z,93.50
2019-04-06T00:59:00.245Z,93.70
2019-04-06T01:01:29.118Z,93.60
2019-04-06T01:03:58.054Z,93.60
2019-04-06T01:06:26.941Z,93.30
2019-04-06T01:08:55.787Z,93.50
2019-04-06T01:11:24.615Z,93.60
2019-04-06T01:13:53.466Z,94.10
2019-04-06T01:16:22.446Z,94.20
2019-04-06T01:18:51.239Z,94.30
2019-04-06T01:21:20.008Z,94.30
2019-04-06T01:23:48.816Z,93.80
2019-04-06T01:26:17.650Z,93.70
2019-04-06T01:28:46.486Z,93.90
2019-04-06T01:31:15.371Z,93.80
2019-04-06T01:33:44.126Z,93.60
2019-04-06T01:36:12.928Z,94.20
2019-04-06T01:38:41.701Z,94.40
2019-04-06T01:41:10.537Z,94.30
2019-04-06T01:43:39.324Z,94.40
2019-04-06T01:46:08.070Z,94.40
2019-04-06T01:48:36.807Z,94.50
2019-04-06T01:51:05.599Z,94.50
2019-04-06T01:53:34.443Z,94.50
2019-04-06T01:56:03.381Z,94.30
2019-04-06T01:58:32.180Z,93.90
2019-04-06T02:01:24.393Z,94.00
2019-04-06T02:03:53.231Z,94.30
2019-04-06T02:06:21.970Z,94.50
2019-04-06T02:08:50.694Z,94.50
2019-04-06T02:11:19.420Z,93.80
2019-04-06T02:13:48.162Z,93.70
2019-04-06T02:16:16.973Z,93.50
2019-04-06T02:18:45.735Z,93.40
2019-04-06T02:21:14.537Z,93.60
2019-04-06T02:23:43.321Z,93.60
2019-04-06T02:26:12.131Z,93.60
2019-04-06T02:28:40.850Z,94.20
2019-04-06T02:31:13.174Z,93.90
2019-04-06T02:33:49.721Z,93.80
2019-04-06T02:36:29.044Z,93.50
2019-04-06T02:39:05.839Z,94.10
2019-04-06T02:41:46.090Z,94.30
2019-04-06T02:44:14.855Z,93.80
2019-04-06T02:46:43.667Z,94.20
2019-04-06T02:49:12.508Z,94.40
2019-04-06T02:51:41.418Z,93.80
2019-04-06T02:54:10.224Z,93.70
2019-04-06T02:56:46.278Z,93.70
2019-04-06T02:59:09.567Z,93.60
2019-04-06T03:01:38.378Z,93.20
2019-04-06T03:04:07.198Z,93.40
2019-04-06T03:06:36.000Z,93.50
2019-04-06T03:09:06.260Z,93.50
2019-04-06T03:11:35.179Z,93.90
2019-04-06T03:14:04.323Z,94.50
2019-04-06T03:16:33.086Z,94.10
2019-04-06T03:19:02.032Z,94.60
2019-04-06T03:21:30.952Z,94.30
2019-04-06T03:23:59.775Z,94.20
2019-04-06T03:26:28.763Z,94.60
2019-04-06T03:28:58.148Z,94.30
2019-04-06T03:31:27.853Z,93.70
2019-04-06T03:33:57.604Z,93.80
2019-04-06T03:36:26.620Z,93.60
2019-04-06T03:38:55.437Z,93.90
2019-04-06T03:41:24.341Z,93.80
2019-04-06T03:43:53.156Z,93.60
2019-04-06T03:46:21.924Z,93.80
2019-04-06T03:48:50.675Z,94.40
2019-04-06T03:51:19.669Z,94.10
2019-04-06T03:53:48.477Z,94.50
2019-04-06T03:56:17.441Z,94.80
2019-04-06T03:58:46.273Z,94.70
2019-04-06T04:01:15.229Z,94.40
2019-04-06T04:03:44.026Z,94.60
2019-04-06T04:06:12.767Z,94.80
2019-04-06T04:08:41.586Z,94.90
2019-04-06T04:11:10.607Z,94.50
2019-04-06T04:13:39.415Z,94.90
2019-04-06T04:16:08.547Z,94.40
2019-04-06T04:18:37.333Z,94.60
2019-04-06T04:21:06.262Z,94.90
2019-04-06T04:23:35.093Z,95.10
2019-04-06T04:26:04.026Z,95.00
2019-04-06T04:28:32.931Z,94.90
2019-04-06T04:31:01.868Z,94.70
2019-04-06T04:33:31.898Z,94.50
2019-04-06T04:36:00.864Z,94.30
2019-04-06T04:38:29.737Z,94.10
2019-04-06T04:40:59.116Z,94.50
2019-04-06T04:43:27.974Z,94.00
2019-04-06T04:45:57.033Z,94.00
2019-04-06T04:48:25.849Z,94.00
2019-04-06T04:50:54.583Z,94.20
2019-04-06T04:53:23.372Z,94.40
2019-04-06T04:55:52.268Z,94.50
2019-04-06T04:58:21.064Z,94.20
2019-04-06T05:00:53.288Z,94.30
2019-04-06T05:03:22.194Z,94.30
2019-04-06T05:05:51.217Z,94.40
2019-04-06T05:08:20.263Z,94.10
2019-04-06T05:10:49.174Z,94.30
2019-04-06T05:13:17.985Z,94.40
2019-04-06T05:16:10.695Z,94.30
2019-04-06T05:18:40.378Z,94.20
2019-04-06T05:21:09.258Z,94.30
2019-04-06T05:23:38.288Z,94.50
2019-04-06T05:26:07.477Z,94.60
2019-04-06T05:28:36.311Z,94.10
2019-04-06T05:31:05.301Z,93.90
2019-04-06T05:33:34.169Z,94.20
2019-04-06T05:36:03.242Z,94.00
2019-04-06T05:38:32.287Z,94.50
2019-04-06T05:41:02.591Z,94.20
2019-04-06T05:43:31.325Z,94.20
2019-04-06T05:46:01.241Z,93.90
2019-04-06T05:48:30.237Z,94.20
2019-04-06T05:50:59.137Z,93.80
2019-04-06T05:53:27.954Z,93.80
2019-04-06T05:55:56.771Z,93.60
2019-04-06T05:58:25.714Z,93.50
2019-04-06T06:00:55.086Z,93.20
2019-04-06T06:03:23.926Z,93.20
2019-04-06T06:05:52.883Z,93.00
2019-04-06T06:08:21.683Z,92.90
2019-04-06T06:10:50.746Z,92.90
2019-04-06T06:13:19.610Z,93.00
2019-04-06T06:15:48.576Z,93.10
2019-04-06T06:18:25.674Z,93.20
2019-04-06T06:20:48.424Z,93.10
2019-04-06T06:23:17.719Z,93.10
2019-04-06T06:25:46.925Z,93.10
2019-04-06T06:28:15.721Z,93.10
2019-04-06T06:30:44.571Z,93.10
2019-04-06T06:33:13.444Z,93.10
2019-04-06T06:35:42.390Z,93.00
2019-04-06T06:38:11.232Z,92.90
2019-04-06T06:40:40.173Z,93.00
2019-04-06T06:43:09.203Z,92.90
2019-04-06T06:45:38.191Z,92.70
2019-04-06T06:48:06.999Z,92.60
2019-04-06T06:50:35.768Z,92.60
2019-04-06T06:53:04.688Z,92.60
2019-04-06T06:55:33.751Z,92.40
2019-04-06T06:58:02.608Z,92.20
2019-04-06T07:00:31.678Z,91.90
2019-04-06T07:03:00.479Z,91.90
2019-04-06T07:05:29.299Z,91.80
2019-04-06T07:07:58.180Z,91.80
2019-04-06T07:10:27.165Z,91.70
2019-04-06T07:12:56.077Z,91.60
2019-04-06T07:15:25.025Z,91.40
2019-04-06T07:17:54.113Z,91.40
2019-04-06T07:20:22.921Z,91.40
2019-04-06T07:22:51.686Z,91.40
2019-04-06T07:25:20.493Z,91.30
2019-04-06T07:27:49.348Z,91.40
2019-04-06T07:30:18.304Z,91.50
2019-04-06T07:32:47.063Z,91.40
2019-04-06T07:35:15.783Z,91.40
2019-04-06T07:37:44.586Z,91.20
2019-04-06T07:40:13.929Z,91.10
2019-04-06T07:42:42.711Z,91.10
2019-04-06T07:45:11.726Z,91.10
2019-04-06T07:47:40.534Z,91.10
2019-04-06T07:50:11.068Z,91.00
2019-04-06T07:52:39.903Z,91.10
2019-04-06T07:55:08.975Z,91.00
2019-04-06T07:57:37.717Z,91.00
2019-04-06T08:00:07.168Z,91.20
2019-04-06T08:02:35.992Z,91.20
2019-04-06T08:05:05.296Z,91.20
2019-04-06T08:07:34.055Z,91.10
2019-04-06T08:10:06.380Z,90.90
2019-04-06T08:12:37.133Z,90.70
2019-04-06T08:15:07.654Z,90.60
2019-04-06T08:17:36.589Z,90.10
2019-04-06T08:20:06.828Z,90.00
2019-04-06T08:22:35.892Z,89.90
2019-04-06T08:25:07.593Z,89.20
2019-04-06T08:27:37.051Z,88.70
2019-04-06T08:30:07.123Z,88.00
2019-04-06T08:32:36.014Z,87.90
2019-04-06T08:35:06.296Z,86.90
2019-04-06T08:37:35.442Z,86.80
2019-04-06T08:40:05.298Z,86.50
2019-04-06T08:42:34.124Z,85.80
2019-04-06T08:45:03.000Z,86.00
2019-04-06T08:47:31.728Z,85.80
2019-04-06T08:50:00.518Z,86.20
2019-04-06T08:52:29.443Z,86.00
2019-04-06T08:54:58.289Z,85.20
2019-04-06T08:57:27.089Z,85.00
2019-04-06T08:59:55.968Z,84.80
2019-04-06T09:02:24.828Z,85.10
2019-04-06T09:04:53.642Z,84.40
2019-04-06T09:07:22.455Z,84.20
2019-04-06T09:09:51.550Z,84.70
2019-04-06T09:12:20.300Z,84.20
2019-04-06T09:14:49.337Z,83.70
2019-04-06T09:17:18.161Z,83.90
2019-04-06T09:19:47.056Z,84.00
2019-04-06T09:22:15.980Z,84.20
2019-04-06T09:24:44.858Z,84.10
2019-04-06T09:27:13.748Z,83.80
2019-04-06T09:29:42.736Z,84.40
2019-04-06T09:32:11.606Z,84.30
2019-04-06T09:34:40.460Z,84.00
2019-04-06T09:37:09.362Z,83.10
2019-04-06T09:39:38.179Z,83.40
2019-04-06T09:42:06.941Z,83.70
2019-04-06T09:45:00.766Z,83.50
2019-04-06T09:47:34.192Z,82.30
2019-04-06T09:50:20.778Z,82.10
2019-04-06T09:52:59.464Z,82.50
2019-04-06T09:55:53.496Z,82.90
2019-04-06T09:58:35.024Z,81.70
2019-04-06T10:01:22.337Z,81.60
2019-04-06T10:04:16.515Z,82.10
2019-04-06T10:06:55.651Z,80.40
2019-04-06T10:09:42.270Z,81.20
2019-04-06T10:12:22.427Z,80.60
2019-04-06T10:15:01.499Z,79.50
2019-04-06T10:17:47.181Z,79.90
2019-04-06T10:20:33.971Z,79.40
2019-04-06T10:23:26.011Z,79.70
2019-04-06T10:26:02.410Z,80.40
2019-04-06T10:28:52.683Z,79.40
2019-04-06T10:31:32.629Z,79.70
2019-04-06T10:34:19.711Z,80.70
2019-04-06T10:37:16.649Z,80.20
2019-04-06T10:39:56.885Z,80.20
2019-04-06T10:42:47.243Z,80.50
2019-04-06T10:45:41.415Z,80.90
2019-04-06T10:48:22.467Z,78.90
2019-04-06T10:51:25.212Z,78.50
2019-04-06T10:54:00.975Z,79.00
2019-04-06T10:56:41.885Z,79.60
2019-04-06T10:59:27.104Z,78.40
2019-04-06T11:02:13.344Z,77.90
2019-04-06T11:04:46.766Z,78.00
2019-04-06T11:07:35.187Z,77.10
2019-04-06T11:10:13.340Z,76.80
2019-04-06T11:12:55.546Z,77.40
2019-04-06T11:15:40.115Z,76.20
2019-04-06T11:18:26.347Z,76.10
2019-04-06T11:21:16.969Z,76.00
2019-04-06T11:24:17.341Z,76.50
2019-04-06T11:27:08.163Z,75.50
2019-04-06T11:29:56.170Z,73.90
2019-04-06T11:32:34.738Z,74.30
2019-04-06T11:35:11.657Z,73.10
2019-04-06T11:38:02.459Z,72.70
2019-04-06T11:40:53.495Z,72.40
2019-04-06T11:43:41.530Z,73.40
2019-04-06T11:46:28.061Z,73.00
2019-04-06T11:49:16.035Z,72.80
2019-04-06T11:51:54.814Z,72.20
2019-04-06T11:54:42.972Z,71.60
2019-04-06T11:57:23.879Z,70.70
2019-04-06T12:00:03.676Z,72.00
2019-04-06T12:02:44.545Z,71.90
2019-04-06T12:05:37.152Z,69.70
2019-04-06T12:08:37.066Z,69.40
2019-04-06T12:11:36.946Z,69.50
2019-04-06T12:14:16.725Z,69.70
2019-04-06T12:17:03.216Z,70.40
2019-04-06T12:19:53.912Z,70.20
2019-04-06T12:22:28.354Z,70.70
2019-04-06T12:25:19.732Z,71.90
2019-04-06T12:28:10.402Z,69.30
2019-04-06T12:30:52.442Z,68.90
2019-04-06T12:33:46.520Z,69.20
2019-04-06T12:36:22.291Z,68.50
2019-04-06T12:39:17.126Z,68.00
2019-04-06T12:42:22.811Z,67.60
2019-04-06T12:45:06.450Z,68.30
2019-04-06T12:47:49.672Z,67.60
2019-04-06T12:50:31.845Z,66.70
2019-04-06T12:53:10.073Z,66.00
2019-04-06T12:55:49.716Z,65.50
2019-04-06T12:58:36.105Z,65.20
2019-04-06T13:01:15.513Z,65.50
2019-04-06T13:03:58.993Z,64.00
2019-04-06T13:06:44.148Z,63.60
2019-04-06T13:09:30.597Z,63.60
2019-04-06T13:12:08.256Z,63.30
2019-04-06T13:14:59.437Z,63.40
2019-04-06T13:17:42.060Z,63.50
2019-04-06T13:20:30.066Z,63.10
2019-04-06T13:23:17.528Z,63.80
2019-04-06T13:26:08.667Z,64.10
2019-04-06T13:28:52.463Z,63.70
2019-04-06T13:31:27.693Z,62.70
2019-04-06T13:34:17.058Z,63.70
2019-04-06T13:37:10.777Z,63.30
2019-04-06T13:39:59.274Z,62.10
2019-04-06T13:42:45.746Z,60.70
2019-04-06T13:45:24.645Z,59.70
2019-04-06T13:48:03.039Z,60.50
2019-04-06T13:50:40.417Z,60.20
2019-04-06T13:53:28.127Z,59.30
2019-04-06T13:56:14.614Z,58.60
2019-04-06T13:58:52.776Z,59.00
2019-04-06T14:01:37.340Z,58.70
2019-04-06T14:04:22.289Z,58.40
2019-04-06T14:06:59.731Z,57.80
2019-04-06T14:09:46.675Z,58.30
2019-04-06T14:12:33.509Z,58.00
2019-04-06T14:15:17.423Z,57.70
2019-04-06T14:18:05.661Z,58.30
2019-04-06T14:20:40.112Z,58.30
2019-04-06T14:23:31.056Z,58.40
2019-04-06T14:26:18.625Z,57.40
2019-04-06T14:28:59.951Z,57.90
2019-04-06T14:31:47.941Z,57.80
2019-04-06T14:34:34.134Z,57.90
2019-04-06T14:37:20.676Z,56.50
2019-04-06T14:40:10.473Z,56.40
2019-04-06T14:43:04.550Z,55.90
2019-04-06T14:45:41.348Z,55.60
2019-04-06T14:48:24.507Z,55.30
2019-04-06T14:51:14.586Z,54.90
2019-04-06T14:53:54.526Z,54.20
2019-04-06T14:56:28.747Z,53.70
2019-04-06T14:59:28.574Z,53.60
2019-04-06T15:02:05.033Z,53.80
2019-04-06T15:04:51.364Z,52.70
2019-04-06T15:07:37.955Z,52.80
2019-04-06T15:10:16.191Z,53.10
2019-04-06T15:13:04.470Z,52.10
2019-04-06T15:15:55.538Z,51.30
2019-04-06T15:18:44.130Z,52.30
2019-04-06T15:21:19.919Z,52.80
2019-04-06T15:24:03.280Z,52.10
2019-04-06T15:26:49.980Z,51.40
2019-04-06T15:29:30.741Z,50.70
2019-04-06T15:32:17.033Z,49.20
2019-04-06T15:35:04.071Z,50.20
2019-04-06T15:37:42.344Z,50.90
2019-04-06T15:40:20.740Z,49.90
2019-04-06T15:43:09.024Z,50.10
2019-04-06T15:45:50.547Z,50.30
2019-04-06T15:48:39.171Z,50.20
2019-04-06T15:51:17.344Z,50.20
2019-04-06T15:54:04.396Z,50.70
2019-04-06T15:56:48.248Z,50.00
2019-04-06T15:59:27.567Z,50.10
2019-04-06T16:02:03.843Z,51.10
2019-04-06T16:04:51.696Z,50.40
2019-04-06T16:07:39.732Z,49.50
2019-04-06T16:10:23.882Z,49.90
2019-04-06T16:13:00.600Z,50.60
2019-04-06T16:15:54.499Z,51.00
2019-04-06T16:18:31.768Z,50.80
2019-04-06T16:21:22.993Z,51.30
2019-04-06T16:24:17.031Z,51.20
2019-04-06T16:26:58.231Z,51.60
2019-04-06T16:29:49.315Z,51.30
2019-04-06T16:32:32.979Z,50.90
2019-04-06T16:35:14.877Z,51.10
2019-04-06T16:37:59.770Z,51.50
2019-04-06T16:40:40.549Z,51.30
2019-04-06T16:43:25.758Z,51.40
2019-04-06T16:46:07.386Z,51.70
2019-04-06T16:48:55.624Z,51.50
2019-04-06T16:51:37.447Z,51.80
2019-04-06T16:54:23.932Z,52.50
2019-04-06T16:57:13.936Z,52.50
2019-04-06T16:59:55.716Z,52.70
2019-04-06T17:02:42.255Z,52.50
2019-04-06T17:05:28.459Z,53.30
2019-04-06T17:08:17.429Z,52.60
2019-04-06T17:10:52.989Z,53.30
2019-04-06T17:13:38.047Z,53.90
2019-04-06T17:16:17.262Z,53.70
2019-04-06T17:19:06.457Z,54.20
2019-04-06T17:21:44.462Z,53.70
2019-04-06T17:24:27.545Z,54.20
2019-04-06T17:27:18.825Z,53.80
2019-04-06T17:29:56.366Z,53.90
2019-04-06T17:32:37.794Z,53.80
2019-04-06T17:35:19.513Z,53.80
2019-04-06T17:38:03.629Z,53.60
2019-04-06T17:40:47.002Z,54.20
2019-04-06T17:43:33.803Z,53.90
2019-04-06T17:46:20.312Z,53.70
2019-04-06T17:49:07.019Z,54.00
2019-04-06T17:51:43.739Z,53.50
2019-04-06T17:54:40.679Z,54.00
2019-04-06T17:57:28.936Z,53.70
2019-04-06T18:00:15.345Z,53.20
2019-04-06T18:03:06.781Z,53.00
2019-04-06T18:05:48.757Z,53.60
2019-04-06T18:08:30.436Z,53.10
2019-04-06T18:11:24.185Z,53.10
2019-04-06T18:13:53.488Z,53.10
2019-04-06T18:16:31.268Z,52.60
2019-04-06T18:19:00.970Z,52.70
2019-04-06T18:21:30.116Z,53.40
2019-04-06T18:24:01.331Z,52.80
2019-04-06T18:26:30.467Z,53.00
2019-04-06T18:29:04.965Z,53.20
2019-04-06T18:31:39.611Z,53.00
2019-04-06T18:34:08.374Z,52.40
2019-04-06T18:36:54.613Z,52.50
2019-04-06T18:39:24.215Z,52.70
2019-04-06T18:41:55.145Z,53.10
2019-04-06T18:44:24.075Z,53.00
2019-04-06T18:46:52.965Z,52.90
2019-04-06T18:49:21.840Z,52.40
2019-04-06T18:51:50.667Z,52.60
2019-04-06T18:54:19.939Z,52.90
2019-04-06T18:56:48.732Z,52.80
2019-04-06T18:59:17.570Z,52.90
2019-04-06T19:01:46.540Z,53.20
2019-04-06T19:04:15.715Z,53.50
2019-04-06T19:06:48.776Z,53.60
2019-04-06T19:09:22.638Z,53.10
2019-04-06T19:11:54.538Z,53.10
2019-04-06T19:14:18.517Z,53.00
2019-04-06T19:16:47.726Z,53.00
2019-04-06T19:19:16.575Z,53.10
2019-04-06T19:21:45.469Z,52.60
2019-04-06T19:24:14.273Z,53.10
2019-04-06T19:26:43.422Z,53.00
2019-04-06T19:29:12.539Z,53.40
2019-04-06T19:31:41.425Z,53.70
2019-04-06T19:34:10.303Z,53.60
2019-04-06T19:36:39.550Z,53.90
2019-04-06T19:39:13.434Z,53.90
2019-04-06T19:41:42.813Z,54.00
2019-04-06T19:44:11.706Z,53.80
2019-04-06T19:46:40.499Z,54.00
2019-04-06T19:49:09.303Z,53.70
2019-04-06T19:51:38.568Z,53.80
2019-04-06T19:54:07.420Z,54.00
2019-04-06T19:56:36.475Z,53.60
2019-04-06T19:59:05.526Z,53.80
2019-04-06T20:01:34.753Z,53.50
2019-04-06T20:04:03.620Z,53.30
2019-04-06T20:06:32.955Z,53.00
2019-04-06T20:09:01.768Z,52.90
2019-04-06T20:11:30.973Z,52.80
2019-04-06T20:14:00.488Z,52.90
2019-04-06T20:16:29.357Z,53.00
2019-04-06T20:18:58.581Z,52.80
2019-04-06T20:21:27.373Z,52.70
2019-04-06T20:23:56.222Z,52.90
2019-04-06T20:26:25.154Z,52.90
2019-04-06T20:28:53.973Z,52.90
2019-04-06T20:31:23.320Z,52.90
2019-04-06T20:33:53.445Z,53.20
2019-04-06T20:36:22.320Z,53.30
2019-04-06T20:38:51.617Z,53.10
2019-04-06T20:41:20.481Z,53.20
2019-04-06T20:43:49.366Z,53.30
2019-04-06T20:46:20.088Z,53.50
2019-04-06T20:48:49.045Z,53.30
2019-04-06T20:51:17.987Z,53.50
2019-04-06T20:53:46.844Z,53.50
2019-04-06T20:56:16.084Z,53.30
2019-04-06T20:58:44.868Z,53.80
2019-04-06T21:01:13.733Z,53.50
2019-04-06T21:03:42.800Z,54.00
2019-04-06T21:06:12.189Z,54.10
2019-04-06T21:08:41.240Z,54.30
2019-04-06T21:11:10.111Z,54.20
2019-04-06T21:13:39.080Z,54.70
2019-04-06T21:16:07.955Z,54.50
2019-04-06T21:18:36.808Z,54.00
2019-04-06T21:21:06.288Z,54.20
2019-04-06T21:23:35.328Z,54.50
2019-04-06T21:26:04.250Z,54.50
2019-04-06T21:28:33.391Z,54.40
2019-04-06T21:31:03.470Z,54.80
2019-04-06T21:33:32.537Z,54.80
2019-04-06T21:36:01.624Z,54.80
2019-04-06T21:38:30.576Z,55.00
2019-04-06T21:40:59.553Z,55.20
2019-04-06T21:43:28.915Z,55.20
2019-04-06T21:45:57.696Z,55.40
2019-04-06T21:48:27.011Z,55.30
2019-04-06T21:50:56.365Z,55.60
2019-04-06T21:53:25.437Z,56.60
2019-04-06T21:56:01.648Z,55.70
2019-04-06T21:58:24.757Z,56.20
2019-04-06T22:03:31.559Z,56.20
2019-04-06T22:06:13.920Z,56.30
2019-04-06T22:08:43.174Z,57.00
2019-04-06T22:11:12.133Z,57.10
2019-04-06T22:13:43.286Z,57.90
2019-04-06T22:16:12.937Z,57.50
2019-04-06T22:18:41.833Z,57.20
2019-04-06T22:21:11.325Z,57.20
2019-04-06T22:23:43.869Z,57.50
2019-04-06T22:26:10.994Z,57.40
2019-04-06T22:28:46.870Z,57.80
2019-04-06T22:31:15.824Z,57.60
2019-04-06T22:33:44.700Z,57.90
2019-04-06T22:36:14.132Z,58.00
2019-04-06T22:38:43.420Z,57.80
2019-04-06T22:41:12.743Z,57.70
2019-04-06T22:43:41.732Z,57.70
2019-04-06T22:46:12.305Z,57.70
2019-04-06T22:48:41.430Z,58.10
2019-04-06T22:51:10.306Z,58.10
2019-04-06T22:53:39.710Z,58.50
2019-04-06T22:56:08.567Z,58.60
2019-04-06T22:58:37.810Z,58.80
2019-04-06T23:01:09.882Z,59.00
2019-04-06T23:04:08.727Z,59.50
2019-04-06T23:07:04.135Z,59.10
2019-04-06T23:09:33.483Z,59.00
2019-04-06T23:12:02.597Z,59.10
2019-04-06T23:14:31.735Z,59.10
2019-04-06T23:17:02.199Z,59.10
2019-04-06T23:19:31.177Z,59.30
2019-04-06T23:21:59.942Z,59.40
2019-04-06T23:24:28.789Z,59.60
2019-04-06T23:26:59.060Z,59.90
2019-04-06T23:29:28.169Z,60.00
2019-04-06T23:31:59.850Z,60.00
2019-04-06T23:34:28.921Z,59.90
2019-04-06T23:36:57.903Z,60.10
2019-04-06T23:39:26.977Z,60.40
2019-04-06T23:41:55.954Z,60.40
2019-04-06T23:44:24.967Z,60.40
2019-04-06T23:46:54.321Z,60.40
2019-04-06T23:49:23.586Z,60.50
2019-04-06T23:51:52.474Z,60.90
2019-04-06T23:54:21.681Z,61.60
2019-04-06T23:56:51.245Z,62.50
2019-04-06T23:59:20.220Z,62.20
